Time;durP1;ratioP1;P1;durP2;ratioP2;P2;SDS_P1;SDS_P2;PMS_P1;PMS_P2;Temp;Humidity;BMP_temperature;BMP_pressure;BME280_temperature;BME280_humidity;BME280_pressure;Samples;Min_cycle;Max_cycle;Signal;HPM_P1;HPM_P2
2022/01/20 00:01:59;;;;;;;88.22;33.53;;;;;;;-2.96;67.76;95893.34;5015074;28;20034;-78
2022/01/20 00:09:42;;;;;;;102.32;38.95;;;;;;;-3.14;67.70;95910.00;5015448;28;20046;-79
2022/01/20 00:26:10;;;;;;;86.50;33.70;;;;;;;-3.06;68.35;95905.75;4954840;29;20035;-79
2022/01/20 00:28:44;;;;;;;80.82;32.75;;;;;;;-3.12;68.47;95927.97;5007108;28;20056;-79
2022/01/20 00:33:51;;;;;;;85.28;33.80;;;;;;;-3.28;67.89;95865.84;5000935;28;20037;-79
2022/01/20 00:38:42;;;;;;;83.82;33.30;;;;;;;-3.17;67.97;95881.81;5017492;28;20148;-79
2022/01/20 00:41:14;;;;;;;79.95;32.88;;;;;;;-2.93;67.69;95906.78;5015453;28;20034;-79
2022/01/20 00:43:42;;;;;;;77.95;33.78;;;;;;;-2.96;67.97;95906.31;5030196;28;20053;-78
2022/01/20 00:46:07;;;;;;;92.60;33.40;;;;;;;-3.12;67.85;95878.69;4996903;28;20050;-78
2022/01/20 00:48:33;;;;;;;82.28;33.15;;;;;;;-2.92;68.60;95907.59;5015027;28;20102;-78
2022/01/20 00:50:59;;;;;;;103.00;34.50;;;;;;;-3.66;67.16;95789.72;5014482;28;20111;-79
2022/01/20 00:53:25;;;;;;;93.18;33.05;;;;;;;-3.92;68.10;95793.41;5014773;28;20049;-76
2022/01/20 00:55:50;;;;;;;77.40;31.00;;;;;;;-3.11;68.20;95898.47;4996466;28;20504;-78
2022/01/20 00:58:16;;;;;;;81.60;32.03;;;;;;;-3.08;68.15;95889.53;5014851;28;20034;-78
2022/01/20 01:00:42;;;;;;;87.68;30.13;;;;;;;-3.29;67.76;95846.88;4997284;28;20106;-79
2022/01/20 01:03:07;;;;;;;77.38;31.30;;;;;;;-3.59;67.47;95798.44;4996378;28;20050;-79
2022/01/20 01:05:38;;;;;;;67.53;29.70;;;;;;;-2.84;67.23;95899.78;4996025;28;20045;-79
2022/01/20 01:08:05;;;;;;;67.00;28.27;;;;;;;-2.90;67.91;95898.66;5013240;28;20044;-79
2022/01/20 01:10:33;;;;;;;73.80;28.73;;;;;;;-3.68;67.50;95802.03;4995980;28;20034;-79
2022/01/20 01:13:04;;;;;;;70.82;30.08;;;;;;;-2.93;67.99;95901.59;5028964;28;20038;-79
2022/01/20 01:15:35;;;;;;;64.57;29.47;;;;;;;-2.86;67.46;95899.94;5013745;28;20092;-78
2022/01/20 01:23:36;;;;;;;64.35;27.30;;;;;;;-4.28;67.75;95723.16;5015490;28;20096;-78
2022/01/20 01:26:04;;;;;;;64.95;27.70;;;;;;;-3.43;67.63;95818.28;4997883;28;20430;-78
2022/01/20 01:28:30;;;;;;;69.68;29.58;;;;;;;-3.76;68.11;95779.56;5015410;28;20037;-78
2022/01/20 01:33:30;;;;;;;70.15;27.77;;;;;;;-3.31;67.66;95854.00;5014062;28;20045;-78
2022/01/20 01:35:58;;;;;;;75.50;28.35;;;;;;;-3.15;67.55;95879.03;5028444;28;20036;-79
2022/01/20 01:38:37;;;;;;;70.82;28.27;;;;;;;-3.85;68.43;95806.47;4961057;28;20125;-78
2022/01/20 01:41:14;;;;;;;56.47;23.42;;;;;;;-3.51;68.50;95858.78;582317;28;10021952;-78
2022/01/20 01:43:44;;;;;;;66.25;27.05;;;;;;;-3.78;68.38;95820.38;4995164;28;20241;-79
2022/01/20 01:46:14;;;;;;;67.65;27.50;;;;;;;-3.45;68.92;95848.75;4679249;28;10000900;-79
2022/01/20 01:48:41;;;;;;;75.35;27.08;;;;;;;-3.75;68.91;95806.28;689582;28;10002164;-78
2022/01/20 01:51:08;;;;;;;73.93;27.52;;;;;;;-3.68;68.87;95838.31;5013477;28;20422;-78
2022/01/20 01:53:34;;;;;;;61.15;26.02;;;;;;;-3.67;68.75;95837.34;5027533;28;20050;-78
2022/01/20 01:56:01;;;;;;;60.67;25.30;;;;;;;-3.88;68.52;95812.00;5027797;28;20052;-78
2022/01/20 01:58:27;;;;;;;62.22;26.25;;;;;;;-3.68;69.10;95846.91;5027666;28;20041;-79
2022/01/20 02:00:52;;;;;;;67.22;27.00;;;;;;;-4.10;68.55;95735.84;5012873;28;20376;-79
2022/01/20 02:03:18;;;;;;;65.53;25.63;;;;;;;-3.41;68.65;95834.44;4995429;28;20087;-79
2022/01/20 02:06:44;;;;;;;68.32;26.23;;;;;;;-4.35;68.14;95695.50;5014014;28;20038;-79
2022/01/20 02:08:44;;;;;;;59.13;23.90;;;;;;;-3.82;67.81;95775.06;5010631;28;20042;-79
2022/01/20 02:19:26;;;;;;;64.25;25.45;;;;;;;-3.72;69.19;95803.34;5013504;28;20052;-78
2022/01/20 02:22:01;;;;;;;66.03;22.90;;;;;;;-3.79;68.79;95782.47;4996698;28;20097;-79
2022/01/20 02:24:28;;;;;;;67.35;26.70;;;;;;;-3.89;68.80;95779.31;5030107;28;20029;-78
2022/01/20 02:26:53;;;;;;;65.32;25.55;;;;;;;-3.88;68.19;95768.75;5030080;28;20148;-79
2022/01/20 02:29:19;;;;;;;67.63;25.55;;;;;;;-3.91;68.06;95742.38;4995784;28;20251;-79
2022/01/20 02:31:45;;;;;;;57.72;24.80;;;;;;;-3.41;68.08;95811.91;5013680;28;20046;-78
2022/01/20 02:34:12;;;;;;;71.82;25.65;;;;;;;-3.78;68.03;95749.59;4996119;28;20087;-78
2022/01/20 02:36:41;;;;;;;59.97;25.45;;;;;;;-3.64;68.55;95809.28;5014509;28;20033;-78
2022/01/20 02:39:27;;;;;;;62.45;26.05;;;;;;;-3.51;67.72;95812.13;5031225;28;20102;-79
2022/01/20 02:47:34;;;;;;;53.10;23.63;;;;;;;-4.46;68.84;95680.31;4991309;28;20481;-80
2022/01/20 02:50:00;;;;;;;53.22;24.15;;;;;;;-4.29;68.65;95693.03;5015736;28;20088;-80
2022/01/20 02:52:27;;;;;;;58.50;25.45;;;;;;;-3.64;68.26;95800.69;5014774;28;20459;-80
2022/01/20 02:54:55;;;;;;;58.70;24.95;;;;;;;-4.42;68.58;95671.22;5029013;28;20048;-79
2022/01/20 02:57:22;;;;;;;53.65;26.15;;;;;;;-4.29;68.26;95693.03;5014628;28;20038;-79
2022/01/20 02:59:47;;;;;;;57.85;24.02;;;;;;;-4.36;68.58;95673.97;5014640;28;20041;-78
2022/01/20 03:02:13;;;;;;;66.82;27.35;;;;;;;-3.77;68.72;95771.94;5014807;28;20112;-79
2022/01/20 03:04:39;;;;;;;60.17;27.20;;;;;;;-3.77;68.76;95784.91;5013938;28;20042;-79
2022/01/20 03:07:05;;;;;;;64.78;25.80;;;;;;;-4.13;69.19;95737.97;4995195;28;20042;-78
2022/01/20 03:09:32;;;;;;;59.08;23.60;;;;;;;-4.24;68.40;95682.16;5027518;28;20103;-78
2022/01/20 03:11:59;;;;;;;57.30;24.67;;;;;;;-4.32;68.75;95689.97;4994860;28;20041;-78
2022/01/20 03:14:24;;;;;;;65.43;24.83;;;;;;;-3.98;68.93;95781.13;4994606;28;20058;-78
2022/01/20 03:16:50;;;;;;;64.15;25.98;;;;;;;-4.03;69.28;95775.63;5027452;28;20033;-78
2022/01/20 03:19:16;;;;;;;57.85;23.77;;;;;;;-4.08;69.38;95777.94;5028061;28;20038;-78
2022/01/20 03:21:43;;;;;;;62.88;25.40;;;;;;;-3.93;69.56;95785.78;5028603;28;20526;-78
2022/01/20 03:24:10;;;;;;;58.97;23.65;;;;;;;-3.97;69.33;95782.72;5027270;28;20515;-79
2022/01/20 03:26:37;;;;;;;66.68;24.63;;;;;;;-3.98;69.82;95785.50;5027623;28;20096;-78
2022/01/20 03:29:04;;;;;;;59.97;23.50;;;;;;;-4.70;69.55;95674.25;4994541;28;20030;-78
2022/01/20 03:31:31;;;;;;;60.35;25.52;;;;;;;-4.70;69.78;95687.22;5028887;28;20505;-79
2022/01/20 03:33:57;;;;;;;58.63;23.05;;;;;;;-3.94;69.04;95776.41;4998354;28;20034;-79
2022/01/20 03:36:23;;;;;;;61.92;23.70;;;;;;;-4.06;68.99;95773.38;5016532;28;20069;-78
2022/01/20 03:38:48;;;;;;;65.88;25.52;;;;;;;-4.41;69.64;95712.50;5015945;28;20441;-78
2022/01/20 03:41:14;;;;;;;56.83;23.83;;;;;;;-4.32;69.26;95714.06;5030232;28;20052;-78
2022/01/20 03:43:39;;;;;;;54.38;23.70;;;;;;;-4.86;69.21;95632.91;5016215;28;20060;-78
2022/01/20 03:46:11;;;;;;;53.20;22.50;;;;;;;-4.75;69.80;95686.09;4586707;28;10001003;-79
2022/01/20 03:48:48;;;;;;;57.05;23.00;;;;;;;-4.57;70.09;95685.84;690198;28;10002084;-79
2022/01/20 03:51:15;;;;;;;134.23;55.67;;;;;;;-4.54;69.05;95686.34;5032215;28;20427;-79
2022/01/20 03:53:40;;;;;;;306.27;143.10;;;;;;;-4.14;69.29;95744.94;5018816;28;20565;-80
2022/01/20 03:56:09;;;;;;;116.57;51.60;;;;;;;-4.35;69.36;95713.63;4999792;28;20092;-78
2022/01/20 03:58:35;;;;;;;74.18;31.05;;;;;;;-4.76;69.10;95658.59;5016381;28;20029;-79
2022/01/20 04:01:00;;;;;;;70.72;27.80;;;;;;;-4.05;69.02;95761.25;5015650;28;20038;-79
2022/01/20 04:03:25;;;;;;;73.90;28.83;;;;;;;-4.41;68.74;95696.97;4997228;28;20057;-79
2022/01/20 04:05:57;;;;;;;50.83;19.75;;;;;;;-4.28;68.00;95741.28;5015400;28;20346;-79
2022/01/20 04:08:41;;;;;;;;;;;;;;;-4.24;69.28;95756.44;5015967;28;20105;-78
2022/01/20 04:11:12;;;;;;;54.80;23.25;;;;;;;-4.04;68.93;95758.47;4997301;28;20024;-78
2022/01/20 04:13:39;;;;;;;55.15;22.92;;;;;;;-4.29;68.50;95705.19;5015025;28;20095;-77
2022/01/20 04:16:34;;;;;;;60.83;21.20;;;;;;;-4.61;68.50;95659.53;4997587;28;20106;-79
2022/01/20 04:19:02;;;;;;;54.15;21.33;;;;;;;-4.37;68.93;95724.16;4997301;28;20065;-79
2022/01/20 04:21:30;;;;;;;56.55;22.20;;;;;;;-4.53;68.29;95661.28;5030123;28;20040;-79
2022/01/20 04:23:59;;;;;;;54.90;21.42;;;;;;;-4.23;68.33;95740.75;5030443;28;20057;-79
2022/01/20 04:26:26;;;;;;;51.17;21.27;;;;;;;-4.84;67.96;95633.56;5017230;28;20092;-79
2022/01/20 04:28:58;;;;;;;50.65;21.98;;;;;;;-3.96;68.25;95753.25;5016742;28;20033;-78
2022/01/20 04:31:26;;;;;;;54.33;21.33;;;;;;;-5.38;68.02;95515.44;5017547;28;20045;-79
2022/01/20 04:33:52;;;;;;;56.88;23.02;;;;;;;-6.05;67.89;95419.47;5016641;28;20048;-78
2022/01/20 04:36:18;;;;;;;51.58;21.23;;;;;;;-4.25;67.40;95696.09;5029425;28;20041;-78
2022/01/20 04:38:43;;;;;;;48.28;20.85;;;;;;;-4.87;67.49;95631.31;5014266;28;20052;-79
2022/01/20 04:41:09;;;;;;;49.50;20.15;;;;;;;-4.61;68.24;95669.88;5015373;28;20038;-79
2022/01/20 04:43:35;;;;;;;50.72;20.75;;;;;;;-4.54;67.40;95663.03;5015721;28;20515;-79
2022/01/20 04:46:11;;;;;;;52.50;19.38;;;;;;;-3.98;67.61;95754.41;4998782;28;20084;-77
2022/01/20 04:57:21;;;;;;;51.08;20.55;;;;;;;-5.33;68.03;95528.66;4953395;29;20134;-79
2022/01/20 04:59:49;;;;;;;53.92;21.13;;;;;;;-4.46;67.24;95665.59;4952582;28;20399;-79
2022/01/20 05:02:15;;;;;;;45.72;19.45;;;;;;;-4.32;67.66;95684.78;4981175;28;20050;-79
2022/01/20 05:04:42;;;;;;;51.60;19.73;;;;;;;-4.49;67.91;95667.72;4996231;28;20088;-79
2022/01/20 05:07:09;;;;;;;56.88;21.17;;;;;;;-4.69;68.03;95662.13;4996693;28;20069;-79
2022/01/20 05:09:35;;;;;;;50.05;18.83;;;;;;;-4.46;68.69;95709.63;5029491;28;20072;-79
2022/01/20 05:12:08;;;;;;;54.88;20.50;;;;;;;-4.05;68.52;95751.69;4998022;28;20046;-79
2022/01/20 05:14:33;;;;;;;47.13;21.35;;;;;;;-4.02;68.11;95751.34;5015955;28;20033;-80
2022/01/20 05:16:59;;;;;;;56.60;21.17;;;;;;;-4.45;68.21;95681.94;5015336;28;20044;-79
2022/01/20 05:19:28;;;;;;;60.83;22.90;;;;;;;-4.16;68.05;95709.81;4996677;28;20141;-79
2022/01/20 05:21:53;;;;;;;58.95;20.60;;;;;;;-4.55;67.56;95655.44;5014058;28;20041;-79
2022/01/20 05:24:20;;;;;;;56.35;21.52;;;;;;;-4.09;67.80;95750.41;4998277;28;20116;-79
2022/01/20 05:26:46;;;;;;;64.15;23.33;;;;;;;-4.10;67.95;95732.44;5013497;28;20033;-79
2022/01/20 05:29:11;;;;;;;64.13;23.85;;;;;;;-4.57;67.57;95667.75;4995297;28;20548;-78
2022/01/20 05:31:37;;;;;;;61.03;22.42;;;;;;;-4.22;67.15;95700.94;5030389;28;20072;-80
2022/01/20 05:34:03;;;;;;;62.83;23.98;;;;;;;-3.90;67.89;95756.97;5031247;28;20034;-79
2022/01/20 05:36:28;;;;;;;55.40;24.48;;;;;;;-4.21;68.61;95723.28;5030462;28;20034;-79
2022/01/20 05:38:54;;;;;;;68.93;26.83;;;;;;;-4.40;68.71;95710.72;4999269;28;20037;-79
2022/01/20 05:41:22;;;;;;;76.75;27.63;;;;;;;-4.36;69.00;95688.69;5016319;28;20048;-79
2022/01/20 05:43:48;;;;;;;81.95;30.95;;;;;;;-3.80;67.91;95761.91;5030657;28;20045;-79
2022/01/20 05:46:15;;;;;;;70.47;28.67;;;;;;;-3.69;67.66;95758.94;4997836;28;20049;-78
2022/01/20 05:48:47;;;;;;;80.07;27.45;;;;;;;-4.50;67.77;95648.00;4982914;28;20517;-79
2022/01/20 05:51:13;;;;;;;70.38;26.52;;;;;;;-4.29;68.92;95751.78;5031890;28;20033;-80
2022/01/20 05:53:39;;;;;;;69.65;28.02;;;;;;;-4.45;69.01;95728.53;5013812;28;20042;-79
2022/01/20 05:56:05;;;;;;;68.22;27.33;;;;;;;-4.16;68.11;95743.47;5013450;28;20026;-78
2022/01/20 05:58:33;;;;;;;73.28;29.75;;;;;;;-4.04;68.09;95724.78;5013857;28;20046;-79
2022/01/20 06:00:59;;;;;;;71.40;26.65;;;;;;;-3.82;68.62;95762.09;5013594;28;20525;-78
2022/01/20 06:03:37;;;;;;;66.35;26.20;;;;;;;-4.03;68.53;95723.00;5015296;28;20063;-79
2022/01/20 06:06:04;;;;;;;71.00;28.42;;;;;;;-4.13;67.98;95709.47;5013297;28;20115;-79
2022/01/20 06:08:30;;;;;;;69.55;27.95;;;;;;;-3.90;67.80;95744.81;5029338;28;20505;-79
2022/01/20 06:10:56;;;;;;;74.72;28.17;;;;;;;-3.73;67.97;95748.09;5013728;28;20175;-78
2022/01/20 06:13:22;;;;;;;55.38;22.15;;;;;;;-3.98;67.83;95703.41;4997401;28;20061;-79
2022/01/20 06:15:48;;;;;;;54.97;22.92;;;;;;;-5.21;67.52;95517.00;4999190;28;20508;-79
2022/01/20 06:18:13;;;;;;;60.17;21.85;;;;;;;-4.03;67.76;95718.63;5030350;28;20041;-79
2022/01/20 06:20:40;;;;;;;50.85;22.77;;;;;;;-4.05;67.40;95702.47;4997896;28;20488;-80
2022/01/20 06:23:10;;;;;;;52.63;22.00;;;;;;;-3.84;67.84;95747.69;4995208;28;20038;-80
2022/01/20 06:25:36;;;;;;;51.03;23.05;;;;;;;-3.97;67.66;95719.75;4996563;28;20539;-79
2022/01/20 06:28:02;;;;;;;56.05;22.92;;;;;;;-4.73;66.93;95614.28;4996424;28;20044;-79
2022/01/20 06:30:29;;;;;;;55.10;23.15;;;;;;;-4.84;67.37;95579.25;4992779;28;20184;-80
2022/01/20 06:32:54;;;;;;;50.78;21.17;;;;;;;-3.75;66.87;95757.03;4994718;28;20035;-80
2022/01/20 06:35:21;;;;;;;53.70;21.48;;;;;;;-4.59;66.77;95617.94;4996074;28;20026;-79
2022/01/20 06:37:46;;;;;;;51.15;21.02;;;;;;;-4.05;66.42;95686.94;4996306;28;20034;-80
2022/01/20 06:40:13;;;;;;;52.55;22.35;;;;;;;-4.10;66.86;95665.88;4997038;28;20413;-81
2022/01/20 06:42:39;;;;;;;58.58;22.52;;;;;;;-4.49;65.72;95593.44;5029907;28;20042;-80
2022/01/20 06:45:06;;;;;;;53.22;22.48;;;;;;;-3.59;65.96;95757.75;4994569;28;20061;-78
2022/01/20 06:47:32;;;;;;;57.15;22.63;;;;;;;-4.19;65.39;95641.00;4994620;28;20058;-80
2022/01/20 06:49:57;;;;;;;56.00;19.67;;;;;;;-3.59;65.54;95726.66;4994879;28;20493;-80
2022/01/20 06:52:23;;;;;;;46.30;19.58;;;;;;;-3.41;65.48;95748.88;4994526;28;20053;-80
2022/01/20 06:54:49;;;;;;;53.17;19.35;;;;;;;-3.68;64.05;95695.75;4996439;28;20441;-80
2022/01/20 06:57:14;;;;;;;47.40;18.63;;;;;;;-4.07;63.67;95628.47;4994611;28;20058;-80
2022/01/20 06:59:40;;;;;;;47.55;18.67;;;;;;;-3.26;63.53;95754.91;5026420;28;20042;-80
2022/01/20 07:02:06;;;;;;;50.75;19.98;;;;;;;-3.43;63.62;95709.34;4992232;28;20042;-78
2022/01/20 07:04:32;;;;;;;54.28;20.20;;;;;;;-3.80;63.72;95627.94;4992507;28;20050;-79
2022/01/20 07:06:58;;;;;;;49.13;19.05;;;;;;;-3.09;64.06;95733.06;4995816;28;20034;-79
2022/01/20 07:09:24;;;;;;;39.83;18.55;;;;;;;-3.09;63.83;95725.25;4996964;28;20069;-80
2022/01/20 07:11:49;;;;;;;49.97;19.35;;;;;;;-2.99;64.12;95751.78;4999103;28;20031;-80
2022/01/20 07:14:15;;;;;;;43.80;19.88;;;;;;;-3.05;63.42;95723.91;4996049;28;20516;-79
2022/01/20 07:16:40;;;;;;;46.10;19.08;;;;;;;-2.90;63.55;95744.75;4997895;28;20073;-80
2022/01/20 07:19:06;;;;;;;41.85;18.67;;;;;;;-3.04;62.79;95720.34;4998932;28;20038;-80
2022/01/20 07:21:31;;;;;;;49.67;19.83;;;;;;;-2.87;62.93;95744.38;5029225;28;20038;-79
2022/01/20 07:23:57;;;;;;;50.38;18.90;;;;;;;-3.63;62.37;95616.47;4981546;28;20436;-79
2022/01/20 07:26:22;;;;;;;53.55;20.02;;;;;;;-2.84;62.25;95757.81;5001799;28;20038;-79
2022/01/20 07:28:50;;;;;;;45.33;18.73;;;;;;;-2.76;62.03;95752.53;4999023;28;20038;-80
2022/01/20 07:31:20;;;;;;;46.33;18.92;;;;;;;-4.39;62.08;95506.00;4999428;28;20045;-80
2022/01/20 07:33:46;;;;;;;56.00;19.63;;;;;;;-3.46;62.43;95640.47;5001090;28;20034;-80
2022/01/20 07:36:12;;;;;;;64.38;20.40;;;;;;;-3.08;62.26;95711.31;4983174;28;20030;-80
2022/01/20 07:38:37;;;;;;;70.60;19.73;;;;;;;-2.94;61.92;95681.97;4999617;28;20037;-80
2022/01/20 07:41:03;;;;;;;49.13;19.67;;;;;;;-3.43;61.90;95632.34;4998895;28;20064;-79
2022/01/20 07:43:28;;;;;;;43.13;18.60;;;;;;;-2.87;62.48;95739.97;4998283;28;20042;-80
2022/01/20 07:45:57;;;;;;;53.55;18.77;;;;;;;-3.25;61.60;95684.72;4998530;28;20137;-79
2022/01/20 07:48:23;;;;;;;36.80;19.50;;;;;;;-2.93;62.10;95738.09;4999248;28;20099;-79
2022/01/20 07:50:48;;;;;;;49.75;20.17;;;;;;;-3.66;62.20;95657.50;4999091;28;20569;-79
2022/01/20 07:53:14;;;;;;;56.35;20.23;;;;;;;-3.44;62.90;95677.44;5031184;28;20042;-80
2022/01/20 07:55:39;;;;;;;47.45;19.98;;;;;;;-3.22;62.15;95683.56;4997943;28;20121;-80
2022/01/20 07:58:05;;;;;;;53.40;18.60;;;;;;;-3.25;62.32;95676.13;4997679;28;20030;-80
2022/01/20 08:00:32;;;;;;;45.53;18.85;;;;;;;-2.77;62.05;95734.53;4998692;28;20108;-80
2022/01/20 08:02:57;;;;;;;46.80;18.50;;;;;;;-2.90;61.57;95683.22;5031842;28;20141;-81
2022/01/20 08:05:23;;;;;;;49.28;17.33;;;;;;;-2.52;61.38;95748.91;5000515;28;20065;-80
2022/01/20 08:07:49;;;;;;;46.35;20.25;;;;;;;-3.19;61.33;95681.41;4999397;28;20513;-80
2022/01/20 08:10:14;;;;;;;58.47;20.23;;;;;;;-2.90;60.71;95721.38;5015266;28;20073;-79
2022/01/20 08:12:40;;;;;;;71.45;20.60;;;;;;;-2.98;61.49;95706.69;4994699;28;20125;-80
2022/01/20 08:15:09;;;;;;;47.90;22.27;;;;;;;-2.61;61.99;95757.75;4996052;28;20022;-80
2022/01/20 08:17:36;;;;;;;60.22;21.42;;;;;;;-2.72;61.57;95735.63;4994766;28;20038;-79
2022/01/20 08:20:02;;;;;;;58.40;21.30;;;;;;;-2.66;61.37;95723.72;5000425;28;20026;-79
2022/01/20 08:22:28;;;;;;;56.35;21.25;;;;;;;-2.72;62.13;95708.84;5000232;28;20049;-79
2022/01/20 08:24:53;;;;;;;58.83;20.67;;;;;;;-2.63;61.26;95718.16;4997406;28;20042;-80
2022/01/20 08:27:20;;;;;;;66.70;21.42;;;;;;;-2.52;61.57;95746.31;5029770;28;20038;-80
2022/01/20 08:29:45;;;;;;;46.90;20.52;;;;;;;-2.79;61.19;95682.00;4995115;28;20038;-79
2022/01/20 08:32:11;;;;;;;59.72;20.17;;;;;;;-3.25;60.53;95595.69;4996657;28;20902;-79
2022/01/20 08:34:36;;;;;;;51.47;20.27;;;;;;;-3.46;60.56;95569.66;4995097;28;20034;-78
2022/01/20 08:37:02;;;;;;;54.38;19.92;;;;;;;-3.06;60.45;95625.53;4993173;28;20129;-79
2022/01/20 08:42:03;;;;;;;64.47;19.48;;;;;;;-2.13;60.07;95727.00;4997866;28;20035;-79
2022/01/20 08:44:29;;;;;;;73.60;22.15;;;;;;;-2.31;59.68;95683.22;4994228;28;20471;-79
2022/01/20 08:47:16;;;;;;;60.95;19.48;;;;;;;-2.31;59.29;95657.25;5030432;28;20050;-78
2022/01/20 08:49:44;;;;;;;53.72;19.40;;;;;;;-2.39;58.66;95624.41;4996010;28;20398;-79
2022/01/20 08:52:10;;;;;;;47.50;18.42;;;;;;;-1.64;58.59;95714.97;4997138;28;20030;-80
2022/01/20 08:54:36;;;;;;;54.00;19.08;;;;;;;-2.21;59.12;95612.81;4997800;28;20473;-80
2022/01/20 08:57:05;;;;;;;63.67;20.98;;;;;;;-5.54;58.94;95100.28;5165149;23;20126;-84
2022/01/20 08:59:30;;;;;;;59.63;19.63;;;;;;;-3.88;58.64;95342.97;5004034;23;20054;-86
2022/01/20 09:01:56;;;;;;;62.78;20.35;;;;;;;-3.49;58.04;95371.16;4992323;28;20042;-86
2022/01/20 09:04:21;;;;;;;67.28;19.75;;;;;;;-3.48;58.16;95377.16;4994506;28;20073;-87
2022/01/20 09:06:47;;;;;;;85.97;19.02;;;;;;;-3.69;57.84;95316.53;5009179;28;20038;-87
2022/01/20 09:09:16;;;;;;;50.65;20.92;;;;;;;-1.14;57.74;95691.63;4993221;28;20038;-87
2022/01/20 09:11:52;;;;;;;67.20;20.17;;;;;;;-1.18;58.07;95684.19;4995707;28;20117;-87
2022/01/20 09:17:02;;;;;;;73.75;19.92;;;;;;;-3.29;57.22;95312.56;4998414;28;20076;-90
2022/01/20 09:19:28;;;;;;;66.57;19.70;;;;;;;-0.58;57.70;95716.66;4995973;28;20125;-87
2022/01/20 09:21:53;;;;;;;47.75;18.15;;;;;;;-1.59;57.42;95533.16;4997096;28;20121;-86
2022/01/20 09:24:19;;;;;;;57.28;18.55;;;;;;;-1.54;57.32;95550.81;4998502;28;20033;-84
2022/01/20 09:26:44;;;;;;;63.88;20.85;;;;;;;-1.19;58.26;95573.25;4998451;28;20108;-87
2022/01/20 09:29:10;;;;;;;93.20;25.17;;;;;;;-0.37;57.65;95684.47;4994914;28;20042;-85
2022/01/20 09:31:38;;;;;;;52.88;18.70;;;;;;;-0.27;57.39;95677.13;4995390;28;20034;-88
2022/01/20 09:34:05;;;;;;;57.33;18.80;;;;;;;-1.00;57.11;95540.53;4995101;28;20034;-88
2022/01/20 09:36:31;;;;;;;61.45;19.05;;;;;;;-0.58;57.30;95607.22;4996784;28;20038;-86
2022/01/20 09:38:56;;;;;;;60.92;19.80;;;;;;;-2.66;56.98;95258.16;4992690;28;20044;-86
2022/01/20 09:41:22;;;;;;;63.25;21.17;;;;;;;-0.75;56.96;95540.81;4991678;28;20038;-87
2022/01/20 09:43:50;;;;;;;62.72;20.17;;;;;;;0.04;57.26;95661.00;4994027;28;20042;-86
2022/01/20 09:46:15;;;;;;;69.22;20.60;;;;;;;0.19;56.51;95653.81;4994624;28;20054;-87
2022/01/20 09:48:41;;;;;;;58.92;19.45;;;;;;;-0.16;56.46;95579.31;4991667;28;20122;-87
2022/01/20 09:51:11;;;;;;;56.35;20.63;;;;;;;0.29;56.29;95622.13;4990832;28;20046;-86
2022/01/20 09:53:37;;;;;;;81.38;21.33;;;;;;;0.27;55.88;95606.69;4991542;28;20497;-87
2022/01/20 09:56:03;;;;;;;51.70;19.83;;;;;;;0.08;56.05;95570.16;4990556;28;20072;-86
2022/01/20 09:58:29;;;;;;;51.35;19.52;;;;;;;0.33;56.14;95577.19;4997150;28;20046;-87
2022/01/20 10:00:58;;;;;;;49.05;19.35;;;;;;;-0.03;55.67;95507.13;4994769;28;20030;-88
2022/01/20 10:03:23;;;;;;;65.38;21.38;;;;;;;0.55;55.60;95588.22;4993920;28;20052;-87
2022/01/20 10:05:52;;;;;;;55.15;19.42;;;;;;;0.98;55.49;95614.72;5010641;28;20125;-86
2022/01/20 10:08:21;;;;;;;52.42;20.20;;;;;;;0.84;55.13;95575.78;4993313;28;20030;-85
2022/01/20 10:10:54;;;;;;;70.78;22.50;;;;;;;0.92;54.47;95559.84;4994217;28;20098;-86
2022/01/20 10:13:24;;;;;;;68.47;20.63;;;;;;;1.27;54.21;95604.81;4994239;28;20033;-89
2022/01/20 10:16:06;;;;;;;64.55;20.85;;;;;;;1.25;54.94;95597.16;4994313;28;20404;-88
2022/01/20 10:18:44;;;;;;;75.80;20.95;;;;;;;0.72;54.65;95516.31;4992484;28;20216;-89
2022/01/20 10:21:11;;;;;;;40.47;7.43;;;;;;;1.08;48.35;95522.84;5012899;28;20045;-90
2022/01/20 10:23:42;;;;;;;28.38;9.25;;;;;;;1.68;45.99;95573.09;5011023;28;20045;-85
2022/01/20 10:26:14;;;;;;;34.58;7.82;;;;;;;2.03;44.53;95553.38;5010462;28;20053;-85
2022/01/20 10:28:47;;;;;;;30.13;6.53;;;;;;;2.97;41.42;95571.59;4994799;28;20125;-89
2022/01/20 10:31:13;;;;;;;25.55;5.88;;;;;;;3.42;39.82;95509.19;4994095;28;20037;-88
2022/01/20 10:33:43;;;;;;;16.33;3.88;;;;;;;3.77;37.74;95483.09;4995323;28;20531;-86
2022/01/20 10:36:19;;;;;;;8.00;3.70;;;;;;;4.98;35.82;95550.88;4994716;28;20042;-87
2022/01/20 10:38:59;;;;;;;28.13;5.95;;;;;;;4.07;35.58;95298.53;4999640;28;20042;-86
2022/01/20 10:41:32;;;;;;;15.35;3.35;;;;;;;6.02;33.70;95541.19;4996267;28;20504;-87
2022/01/20 10:44:13;;;;;;;7.72;3.38;;;;;;;3.41;33.38;95087.31;4995467;28;20304;-88
2022/01/20 10:46:55;;;;;;;11.60;3.63;;;;;;;6.78;32.31;95536.38;5013358;28;20038;-88
2022/01/20 10:49:30;;;;;;;11.82;3.53;;;;;;;2.72;31.01;94895.16;4997368;28;20109;-87
2022/01/20 10:52:05;;;;;;;22.92;4.47;;;;;;;7.36;31.43;95506.84;4998932;28;20049;-89
2022/01/20 10:54:45;;;;;;;24.60;4.97;;;;;;;6.27;31.93;95293.22;5014716;28;20136;-88
2022/01/20 10:57:13;;;;;;;13.23;4.00;;;;;;;5.39;30.65;95181.72;4996766;28;20045;-85
2022/01/20 10:59:51;;;;;;;24.83;6.00;;;;;;;7.72;31.61;95505.44;4994507;28;20077;-87
2022/01/20 11:02:21;;;;;;;38.33;5.55;;;;;;;5.33;31.77;95119.56;5013375;28;20100;-86
2022/01/20 11:04:48;;;;;;;14.57;5.25;;;;;;;5.51;31.56;95186.88;4997629;28;20038;-87
2022/01/20 11:07:13;;;;;;;24.23;4.30;;;;;;;5.36;31.33;95232.13;4996905;28;20034;-87
2022/01/20 11:09:45;;;;;;;36.20;6.65;;;;;;;2.29;31.70;94769.94;5016771;28;20500;-88
2022/01/20 11:12:30;;;;;;;;;;;;;;;6.92;31.65;95480.44;4999593;28;20073;-87
2022/01/20 11:15:00;;;;;;;16.63;4.55;;;;;;;6.59;32.21;95412.75;5010899;28;19925;-86
2022/01/20 11:17:29;;;;;;;17.52;4.97;;;;;;;5.52;31.36;95235.00;4986419;28;20049;-87
2022/01/20 11:20:16;;;;;;;26.98;5.72;;;;;;;4.55;31.72;95072.38;4991898;28;20126;-87
2022/01/20 11:23:02;;;;;;;22.65;6.20;;;;;;;6.07;31.55;95309.56;4992666;28;20512;-86
2022/01/20 11:25:34;;;;;;;24.48;5.35;;;;;;;6.54;30.45;95402.16;4993768;28;20038;-86
2022/01/20 11:28:21;;;;;;;9.05;3.40;;;;;;;6.43;29.82;95416.22;4992745;28;20041;-86
2022/01/20 11:30:58;;;;;;;10.60;3.42;;;;;;;6.88;29.13;95474.03;4992889;28;20435;-87
2022/01/20 11:33:37;;;;;;;12.07;2.80;;;;;;;5.70;29.51;95298.72;4992929;28;20092;-85
2022/01/20 11:36:05;;;;;;;10.88;3.70;;;;;;;4.83;30.40;95163.44;4993808;28;20042;-87
2022/01/20 11:38:49;;;;;;;22.02;3.50;;;;;;;6.12;30.11;95367.56;4998536;28;20045;-88
2022/01/20 11:41:17;;;;;;;15.55;3.83;;;;;;;6.77;30.09;95456.50;5011538;28;20508;-88
2022/01/20 11:43:51;;;;;;;12.65;3.13;;;;;;;6.48;29.90;95391.78;4993678;28;20033;-87
2022/01/20 11:46:27;;;;;;;9.02;3.55;;;;;;;6.80;30.16;95457.84;4993973;28;20056;-88
2022/01/20 11:49:02;;;;;;;15.43;4.78;;;;;;;6.88;31.08;95466.13;4992750;28;20030;-88
2022/01/20 11:51:51;;;;;;;23.75;5.88;;;;;;;6.94;31.64;95453.84;5012442;28;20052;-88
2022/01/20 11:54:33;;;;;;;10.82;4.30;;;;;;;5.09;30.68;95170.72;4996405;28;20052;-88
2022/01/20 11:57:08;;;;;;;12.32;4.00;;;;;;;6.92;31.53;95434.81;4997126;28;20040;-89
2022/01/20 11:59:54;;;;;;;9.95;3.83;;;;;;;6.91;30.34;95417.41;4995210;28;20064;-88
2022/01/20 12:02:35;;;;;;;11.82;3.88;;;;;;;6.98;30.80;95445.19;4996243;28;20034;-88
2022/01/20 12:05:19;;;;;;;10.52;2.92;;;;;;;3.95;30.43;94961.91;4994729;28;20041;-88
2022/01/20 12:07:45;;;;;;;7.70;3.60;;;;;;;6.71;30.94;95393.41;4994239;28;20144;-88
2022/01/20 12:10:12;;;;;;;12.80;3.70;;;;;;;6.55;30.62;95376.59;4995365;28;20038;-87
2022/01/20 12:12:39;;;;;;;12.50;3.47;;;;;;;6.94;30.45;95409.00;4995442;28;20044;-86
2022/01/20 12:15:14;;;;;;;19.80;4.03;;;;;;;6.62;31.32;95371.97;5011284;28;20120;-87
2022/01/20 12:17:53;;;;;;;9.85;3.45;;;;;;;7.21;31.32;95444.16;2343686;28;10021825;-88
2022/01/20 12:20:19;;;;;;;8.57;2.55;;;;;;;6.55;32.07;95363.44;3272586;28;10001465;-87
2022/01/20 12:22:46;;;;;;;8.40;2.45;;;;;;;6.36;32.93;95356.84;4994864;28;20034;-87
2022/01/20 12:25:17;;;;;;;9.57;2.65;;;;;;;6.72;33.41;95387.09;4994195;28;20033;-87
2022/01/20 12:27:43;;;;;;;10.18;3.20;;;;;;;4.46;33.20;95079.03;4996345;28;20145;-87
2022/01/20 12:30:26;;;;;;;8.35;3.15;;;;;;;4.71;33.13;95131.22;4995397;28;20037;-87